sensor_id;sensor_type;location;lat;lon;timestamp;pressure;altitude;pressure_sealevel;temperature;humidity
12781;BME280;6454;43.304;24.344;2024-01-30T00:01:41;102800.38;;;1.21;75.51
12781;BME280;6454;43.304;24.344;2024-01-30T00:04:06;102791.69;;;1.26;74.97
12781;BME280;6454;43.304;24.344;2024-01-30T00:06:32;102785.53;;;1.32;74.02
12781;BME280;6454;43.304;24.344;2024-01-30T00:08:57;102782.66;;;1.33;75.52
12781;BME280;6454;43.304;24.344;2024-01-30T00:11:23;102785.53;;;1.32;75.31
12781;BME280;6454;43.304;24.344;2024-01-30T00:13:51;102782.56;;;1.27;75.73
12781;BME280;6454;43.304;24.344;2024-01-30T00:16:22;102779.47;;;1.30;75.18
12781;BME280;6454;43.304;24.344;2024-01-30T00:18:50;102782.34;;;1.28;75.52
12781;BME280;6454;43.304;24.344;2024-01-30T00:21:15;102768.09;;;1.19;74.61
12781;BME280;6454;43.304;24.344;2024-01-30T00:23:41;102783.03;;;1.30;75.25
12781;BME280;6454;43.304;24.344;2024-01-30T00:26:06;102786.16;;;1.34;74.55
12781;BME280;6454;43.304;24.344;2024-01-30T00:28:32;102777.03;;;1.35;74.45
12781;BME280;6454;43.304;24.344;2024-01-30T00:30:57;102785.63;;;1.38;74.57
12781;BME280;6454;43.304;24.344;2024-01-30T00:33:22;102782.34;;;1.43;75.22
12781;BME280;6454;43.304;24.344;2024-01-30T00:35:48;102784.41;;;1.41;75.08
12781;BME280;6454;43.304;24.344;2024-01-30T00:38:13;102782.72;;;1.40;75.51
12781;BME280;6454;43.304;24.344;2024-01-30T00:40:38;102777.97;;;1.27;75.60
12781;BME280;6454;43.304;24.344;2024-01-30T00:43:04;102773.09;;;1.23;75.47
12781;BME280;6454;43.304;24.344;2024-01-30T00:45:29;102780.09;;;1.32;74.45
12781;BME280;6454;43.304;24.344;2024-01-30T00:47:55;102764.81;;;1.24;75.65
12781;BME280;6454;43.304;24.344;2024-01-30T00:50:20;102789.72;;;1.34;75.76
12781;BME280;6454;43.304;24.344;2024-01-30T00:52:45;102789.94;;;1.33;75.07
12781;BME280;6454;43.304;24.344;2024-01-30T00:55:11;102784.88;;;1.30;75.83
12781;BME280;6454;43.304;24.344;2024-01-30T00:57:36;102786.28;;;1.26;75.88
12781;BME280;6454;43.304;24.344;2024-01-30T01:00:02;102779.38;;;1.23;76.19
12781;BME280;6454;43.304;24.344;2024-01-30T01:02:28;102767.78;;;1.14;75.08
12781;BME280;6454;43.304;24.344;2024-01-30T01:04:53;102781.91;;;1.25;75.73
12781;BME280;6454;43.304;24.344;2024-01-30T01:07:19;102781.63;;;1.19;76.37
12781;BME280;6454;43.304;24.344;2024-01-30T01:09:44;102773.88;;;1.16;75.75
12781;BME280;6454;43.304;24.344;2024-01-30T01:12:10;102762.19;;;1.01;76.29
12781;BME280;6454;43.304;24.344;2024-01-30T01:14:35;102765.13;;;1.00;77.31
12781;BME280;6454;43.304;24.344;2024-01-30T01:17:01;102767.72;;;1.08;76.24
12781;BME280;6454;43.304;24.344;2024-01-30T01:19:26;102755.94;;;1.01;77.07
12781;BME280;6454;43.304;24.344;2024-01-30T01:21:52;102769.84;;;1.12;75.96
12781;BME280;6454;43.304;24.344;2024-01-30T01:24:18;102770.50;;;1.14;76.62
12781;BME280;6454;43.304;24.344;2024-01-30T01:26:43;102755.19;;;1.07;76.40
12781;BME280;6454;43.304;24.344;2024-01-30T01:29:09;102768.25;;;1.18;76.68
12781;BME280;6454;43.304;24.344;2024-01-30T01:31:38;102774.53;;;1.18;75.93
12781;BME280;6454;43.304;24.344;2024-01-30T01:34:13;102780.31;;;1.15;75.32
12781;BME280;6454;43.304;24.344;2024-01-30T01:36:39;102765.19;;;1.06;76.35
12781;BME280;6454;43.304;24.344;2024-01-30T01:39:04;102761.19;;;1.02;75.97
12781;BME280;6454;43.304;24.344;2024-01-30T01:41:30;102772.47;;;1.20;75.44
12781;BME280;6454;43.304;24.344;2024-01-30T01:43:56;102776.22;;;1.19;75.96
12781;BME280;6454;43.304;24.344;2024-01-30T01:46:22;102774.53;;;1.18;74.75
12781;BME280;6454;43.304;24.344;2024-01-30T01:48:47;102768.47;;;1.16;74.89
12781;BME280;6454;43.304;24.344;2024-01-30T01:51:13;102775.81;;;1.23;74.40
12781;BME280;6454;43.304;24.344;2024-01-30T01:53:39;102749.41;;;1.10;74.26
12781;BME280;6454;43.304;24.344;2024-01-30T01:56:05;102778.53;;;1.23;74.40
12781;BME280;6454;43.304;24.344;2024-01-30T01:58:31;102777.03;;;1.20;75.13
12781;BME280;6454;43.304;24.344;2024-01-30T02:00:56;102780.00;;;1.25;75.19
12781;BME280;6454;43.304;24.344;2024-01-30T02:03:23;102785.25;;;1.27;73.60
12781;BME280;6454;43.304;24.344;2024-01-30T02:05:49;102781.31;;;1.29;74.82
12781;BME280;6454;43.304;24.344;2024-01-30T02:08:15;102768.47;;;1.16;74.61
12781;BME280;6454;43.304;24.344;2024-01-30T02:10:41;102785.44;;;1.25;74.54
12781;BME280;6454;43.304;24.344;2024-01-30T02:13:06;102774.06;;;1.30;73.76
12781;BME280;6454;43.304;24.344;2024-01-30T02:15:31;102772.34;;;1.29;74.16
12781;BME280;6454;43.304;24.344;2024-01-30T02:17:57;102765.47;;;1.11;75.60
12781;BME280;6454;43.304;24.344;2024-01-30T02:20:23;102777.50;;;1.24;74.64
12781;BME280;6454;43.304;24.344;2024-01-30T02:22:51;102761.09;;;1.10;75.24
12781;BME280;6454;43.304;24.344;2024-01-30T02:25:19;102768.00;;;1.13;75.37
12781;BME280;6454;43.304;24.344;2024-01-30T02:27:45;102775.09;;;1.14;75.84
12781;BME280;6454;43.304;24.344;2024-01-30T02:30:10;102757.63;;;1.02;75.04
12781;BME280;6454;43.304;24.344;2024-01-30T02:32:36;102769.84;;;1.12;75.13
12781;BME280;6454;43.304;24.344;2024-01-30T02:35:01;102768.38;;;1.10;76.14
12781;BME280;6454;43.304;24.344;2024-01-30T02:37:27;102756.16;;;0.99;75.60
12781;BME280;6454;43.304;24.344;2024-01-30T02:39:52;102768.09;;;1.05;75.51
12781;BME280;6454;43.304;24.344;2024-01-30T02:42:18;102765.13;;;1.00;75.45
12781;BME280;6454;43.304;24.344;2024-01-30T02:44:43;102771.38;;;1.00;75.98
12781;BME280;6454;43.304;24.344;2024-01-30T02:47:09;102772.38;;;0.99;75.63
12781;BME280;6454;43.304;24.344;2024-01-30T02:49:34;102769.78;;;0.91;76.64
12781;BME280;6454;43.304;24.344;2024-01-30T02:51:59;102771.06;;;0.95;75.87
12781;BME280;6454;43.304;24.344;2024-01-30T02:54:25;102773.78;;;0.95;75.97
12781;BME280;6454;43.304;24.344;2024-01-30T02:56:50;102772.84;;;0.88;77.04
12781;BME280;6454;43.304;24.344;2024-01-30T02:59:16;102770.34;;;0.87;76.87
12781;BME280;6454;43.304;24.344;2024-01-30T03:01:44;102767.44;;;0.88;76.58
12781;BME280;6454;43.304;24.344;2024-01-30T03:04:10;102757.63;;;0.87;76.81
12781;BME280;6454;43.304;24.344;2024-01-30T03:06:36;102748.22;;;0.83;76.65
12781;BME280;6454;43.304;24.344;2024-01-30T03:09:02;102764.47;;;0.83;75.93
12781;BME280;6454;43.304;24.344;2024-01-30T03:11:28;102767.81;;;0.85;76.10
12781;BME280;6454;43.304;24.344;2024-01-30T03:13:53;102767.06;;;0.91;76.62
12781;BME280;6454;43.304;24.344;2024-01-30T03:16:18;102756.88;;;0.93;76.26
12781;BME280;6454;43.304;24.344;2024-01-30T03:18:44;102747.47;;;0.89;76.09
12781;BME280;6454;43.304;24.344;2024-01-30T03:21:09;102739.63;;;0.80;76.21
12781;BME280;6454;43.304;24.344;2024-01-30T03:23:35;102749.50;;;0.87;77.26
12781;BME280;6454;43.304;24.344;2024-01-30T03:26:00;102749.50;;;0.87;77.34
12781;BME280;6454;43.304;24.344;2024-01-30T03:28:25;102735.81;;;0.89;76.79
12781;BME280;6454;43.304;24.344;2024-01-30T03:30:51;102750.72;;;0.85;75.82
12781;BME280;6454;43.304;24.344;2024-01-30T03:33:16;102747.00;;;0.86;76.54
12781;BME280;6454;43.304;24.344;2024-01-30T03:35:42;102743.34;;;0.93;76.13
12781;BME280;6454;43.304;24.344;2024-01-30T03:38:08;102737.66;;;0.88;75.81
12781;BME280;6454;43.304;24.344;2024-01-30T03:40:33;102740.16;;;0.90;76.31
12781;BME280;6454;43.304;24.344;2024-01-30T03:42:58;102732.47;;;0.87;75.91
12781;BME280;6454;43.304;24.344;2024-01-30T03:45:24;102754.09;;;1.01;75.55
12781;BME280;6454;43.304;24.344;2024-01-30T03:47:49;102735.59;;;0.90;75.56
12781;BME280;6454;43.304;24.344;2024-01-30T03:50:15;102731.88;;;0.91;76.22
12781;BME280;6454;43.304;24.344;2024-01-30T03:52:40;102743.09;;;1.03;75.93
12781;BME280;6454;43.304;24.344;2024-01-30T03:55:05;102747.94;;;1.07;75.54
12781;BME280;6454;43.304;24.344;2024-01-30T03:57:31;102750.91;;;1.12;75.12
12781;BME280;6454;43.304;24.344;2024-01-30T03:59:56;102738.97;;;1.07;75.85
12781;BME280;6454;43.304;24.344;2024-01-30T04:02:21;102747.94;;;1.07;76.35
12781;BME280;6454;43.304;24.344;2024-01-30T04:04:47;102753.72;;;1.04;76.16
12781;BME280;6454;43.304;24.344;2024-01-30T04:07:12;102734.28;;;1.01;76.15
12781;BME280;6454;43.304;24.344;2024-01-30T04:09:38;102747.94;;;1.07;75.36
12781;BME280;6454;43.304;24.344;2024-01-30T04:12:03;102751.91;;;1.11;75.23
12781;BME280;6454;43.304;24.344;2024-01-30T04:14:29;102751.38;;;1.16;76.15
12781;BME280;6454;43.304;24.344;2024-01-30T04:16:54;102751.19;;;1.17;74.99
12781;BME280;6454;43.304;24.344;2024-01-30T04:19:19;102758.91;;;1.20;74.93
12781;BME280;6454;43.304;24.344;2024-01-30T04:21:45;102754.94;;;1.16;75.96
12781;BME280;6454;43.304;24.344;2024-01-30T04:24:10;102765.56;;;1.18;76.39
12781;BME280;6454;43.304;24.344;2024-01-30T04:26:36;102766.56;;;1.17;74.83
12781;BME280;6454;43.304;24.344;2024-01-30T04:29:02;102777.41;;;1.17;75.60
12781;BME280;6454;43.304;24.344;2024-01-30T04:31:28;102755.31;;;1.13;74.88
12781;BME280;6454;43.304;24.344;2024-01-30T04:33:53;102766.19;;;1.20;75.16
12781;BME280;6454;43.304;24.344;2024-01-30T04:36:18;102751.09;;;1.11;75.67
12781;BME280;6454;43.304;24.344;2024-01-30T04:38:44;102759.97;;;1.05;76.61
12781;BME280;6454;43.304;24.344;2024-01-30T04:41:10;102756.41;;;1.04;75.91
12781;BME280;6454;43.304;24.344;2024-01-30T04:43:35;102771.63;;;1.20;75.29
12781;BME280;6454;43.304;24.344;2024-01-30T04:46:01;102772.47;;;1.20;75.75
12781;BME280;6454;43.304;24.344;2024-01-30T04:48:27;102772.47;;;1.20;75.99
12781;BME280;6454;43.304;24.344;2024-01-30T04:50:52;102773.09;;;1.23;75.59
12781;BME280;6454;43.304;24.344;2024-01-30T04:53:17;102773.22;;;1.14;75.27
12781;BME280;6454;43.304;24.344;2024-01-30T04:55:44;102780.13;;;1.17;75.09
12781;BME280;6454;43.304;24.344;2024-01-30T04:58:09;102770.34;;;1.16;76.25
12781;BME280;6454;43.304;24.344;2024-01-30T05:00:35;102768.47;;;1.16;76.26
12781;BME280;6454;43.304;24.344;2024-01-30T05:03:00;102766.03;;;1.07;75.38
12781;BME280;6454;43.304;24.344;2024-01-30T05:05:25;102771.72;;;1.12;75.79
12781;BME280;6454;43.304;24.344;2024-01-30T05:07:51;102778.81;;;1.13;76.10
12781;BME280;6454;43.304;24.344;2024-01-30T05:10:16;102775.66;;;1.09;75.45
12781;BME280;6454;43.304;24.344;2024-01-30T05:12:42;102772.28;;;1.07;76.07
12781;BME280;6454;43.304;24.344;2024-01-30T05:15:07;102782.75;;;1.10;75.73
12781;BME280;6454;43.304;24.344;2024-01-30T05:17:33;102782.47;;;1.05;76.92
12781;BME280;6454;43.304;24.344;2024-01-30T05:19:58;102786.03;;;1.06;76.61
12781;BME280;6454;43.304;24.344;2024-01-30T05:22:24;102782.84;;;1.02;76.25
12781;BME280;6454;43.304;24.344;2024-01-30T05:24:49;102780.13;;;1.02;76.86
12781;BME280;6454;43.304;24.344;2024-01-30T05:27:14;102763.34;;;0.92;76.60
12781;BME280;6454;43.304;24.344;2024-01-30T05:29:40;102774.63;;;0.96;76.30
12781;BME280;6454;43.304;24.344;2024-01-30T05:32:06;102759.13;;;0.75;77.39
12781;BME280;6454;43.304;24.344;2024-01-30T05:34:32;102765.19;;;0.77;77.88
12781;BME280;6454;43.304;24.344;2024-01-30T05:36:57;102758.78;;;0.78;77.75
12781;BME280;6454;43.304;24.344;2024-01-30T05:39:23;102748.47;;;0.74;77.08
12781;BME280;6454;43.304;24.344;2024-01-30T05:41:48;102760.91;;;0.83;77.23
12781;BME280;6454;43.304;24.344;2024-01-30T05:44:13;102779.59;;;0.92;76.71
12781;BME280;6454;43.304;24.344;2024-01-30T05:46:39;102773.88;;;0.87;76.07
12781;BME280;6454;43.304;24.344;2024-01-30T05:49:04;102785.66;;;0.94;76.10
12781;BME280;6454;43.304;24.344;2024-01-30T05:51:30;102777.16;;;0.97;76.93
12781;BME280;6454;43.304;24.344;2024-01-30T05:53:55;102787.69;;;1.07;75.69
12781;BME280;6454;43.304;24.344;2024-01-30T05:56:20;102792.25;;;1.06;76.55
12781;BME280;6454;43.304;24.344;2024-01-30T05:58:46;102790.41;;;1.07;75.52
12781;BME280;6454;43.304;24.344;2024-01-30T06:01:11;102796.00;;;1.05;75.56
12781;BME280;6454;43.304;24.344;2024-01-30T06:03:37;102792.47;;;1.05;76.21
12781;BME280;6454;43.304;24.344;2024-01-30T06:06:02;102803.56;;;1.10;75.49
12781;BME280;6454;43.304;24.344;2024-01-30T06:08:27;102768.66;;;0.86;76.95
12781;BME280;6454;43.304;24.344;2024-01-30T06:10:53;102804.31;;;1.04;76.73
12781;BME280;6454;43.304;24.344;2024-01-30T06:13:20;102797.66;;;1.06;75.97
12781;BME280;6454;43.304;24.344;2024-01-30T06:15:45;102782.84;;;1.02;76.41
12781;BME280;6454;43.304;24.344;2024-01-30T06:18:11;102802.19;;;1.14;75.66
12781;BME280;6454;43.304;24.344;2024-01-30T06:20:36;102793.47;;;1.04;75.59
12781;BME280;6454;43.304;24.344;2024-01-30T06:23:02;102791.63;;;1.04;75.76
12781;BME280;6454;43.304;24.344;2024-01-30T06:25:27;102809.09;;;1.16;76.93
12781;BME280;6454;43.304;24.344;2024-01-30T06:27:52;102802.91;;;1.23;75.66
12781;BME280;6454;43.304;24.344;2024-01-30T06:30:18;102792.16;;;1.14;76.02
12781;BME280;6454;43.304;24.344;2024-01-30T06:32:43;102788.06;;;1.18;76.10
12781;BME280;6454;43.304;24.344;2024-01-30T06:35:09;102789.09;;;1.17;76.32
12781;BME280;6454;43.304;24.344;2024-01-30T06:37:36;102808.88;;;1.33;75.32
12781;BME280;6454;43.304;24.344;2024-01-30T06:40:01;102809.72;;;1.33;74.63
12781;BME280;6454;43.304;24.344;2024-01-30T06:42:26;102801.41;;;1.35;74.70
12781;BME280;6454;43.304;24.344;2024-01-30T06:44:52;102803.28;;;1.34;75.67
12781;BME280;6454;43.304;24.344;2024-01-30T06:47:17;102791.25;;;1.22;75.57
12781;BME280;6454;43.304;24.344;2024-01-30T06:49:43;102798.50;;;1.36;75.32
12781;BME280;6454;43.304;24.344;2024-01-30T06:52:09;102811.13;;;1.44;74.95
12781;BME280;6454;43.304;24.344;2024-01-30T06:54:34;102805.69;;;1.44;75.52
12781;BME280;6454;43.304;24.344;2024-01-30T06:57:00;102807.72;;;1.42;75.20
12781;BME280;6454;43.304;24.344;2024-01-30T06:59:25;102797.28;;;1.39;75.82
12781;BME280;6454;43.304;24.344;2024-01-30T07:01:50;102822.88;;;1.51;75.53
12781;BME280;6454;43.304;24.344;2024-01-30T07:04:16;102804.00;;;1.43;75.59
12781;BME280;6454;43.304;24.344;2024-01-30T07:06:42;102810.34;;;1.50;74.63
12781;BME280;6454;43.304;24.344;2024-01-30T07:09:08;102815.75;;;1.50;76.33
12781;BME280;6454;43.304;24.344;2024-01-30T07:11:36;102801.19;;;1.51;75.38
12781;BME280;6454;43.304;24.344;2024-01-30T07:14:01;102817.44;;;1.65;74.63
12781;BME280;6454;43.304;24.344;2024-01-30T07:16:29;102800.06;;;1.60;73.60
12781;BME280;6454;43.304;24.344;2024-01-30T07:18:55;102821.25;;;1.71;74.75
12781;BME280;6454;43.304;24.344;2024-01-30T07:21:22;102802.41;;;1.63;73.94
12781;BME280;6454;43.304;24.344;2024-01-30T07:23:53;102806.75;;;1.64;74.61
12781;BME280;6454;43.304;24.344;2024-01-30T07:26:18;102826.47;;;1.72;73.78
12781;BME280;6454;43.304;24.344;2024-01-30T07:28:44;102826.56;;;1.79;75.16
12781;BME280;6454;43.304;24.344;2024-01-30T07:31:09;102821.78;;;1.81;73.58
12781;BME280;6454;43.304;24.344;2024-01-30T07:33:34;102825.34;;;1.82;73.87
12781;BME280;6454;43.304;24.344;2024-01-30T07:36:01;102823.66;;;1.80;73.35
12781;BME280;6454;43.304;24.344;2024-01-30T07:38:26;102825.34;;;1.82;73.52
12781;BME280;6454;43.304;24.344;2024-01-30T07:40:52;102804.50;;;1.82;74.06
12781;BME280;6454;43.304;24.344;2024-01-30T07:43:17;102817.53;;;1.93;72.94
12781;BME280;6454;43.304;24.344;2024-01-30T07:45:43;102817.84;;;1.84;73.30
12781;BME280;6454;43.304;24.344;2024-01-30T07:48:08;102819.84;;;1.96;72.68
12781;BME280;6454;43.304;24.344;2024-01-30T07:50:34;102822.38;;;1.98;73.52
12781;BME280;6454;43.304;24.344;2024-01-30T07:52:59;102820.53;;;1.98;73.29
12781;BME280;6454;43.304;24.344;2024-01-30T07:55:25;102817.41;;;2.01;74.01
12781;BME280;6454;43.304;24.344;2024-01-30T07:57:57;102813.31;;;1.91;73.50
12781;BME280;6454;43.304;24.344;2024-01-30T08:00:22;102819.22;;;1.94;72.76
12781;BME280;6454;43.304;24.344;2024-01-30T08:02:48;102815.34;;;2.03;73.33
12781;BME280;6454;43.304;24.344;2024-01-30T08:05:14;102786.28;;;1.97;73.40
12781;BME280;6454;43.304;24.344;2024-01-30T08:07:41;102801.41;;;2.06;72.74
12781;BME280;6454;43.304;24.344;2024-01-30T08:10:07;102815.09;;;2.19;71.35
12781;BME280;6454;43.304;24.344;2024-01-30T08:12:33;102811.16;;;2.22;71.14
12781;BME280;6454;43.304;24.344;2024-01-30T08:14:58;102816.38;;;2.23;72.31
12781;BME280;6454;43.304;24.344;2024-01-30T08:17:24;102822.06;;;2.28;72.05
12781;BME280;6454;43.304;24.344;2024-01-30T08:19:49;102807.84;;;2.26;70.82
12781;BME280;6454;43.304;24.344;2024-01-30T08:22:14;102823.16;;;2.34;71.82
12781;BME280;6454;43.304;24.344;2024-01-30T08:24:40;102831.13;;;2.35;71.75
12781;BME280;6454;43.304;24.344;2024-01-30T08:27:06;102813.28;;;2.26;70.93
12781;BME280;6454;43.304;24.344;2024-01-30T08:29:35;102809.16;;;2.30;69.68
12781;BME280;6454;43.304;24.344;2024-01-30T08:32:00;102823.00;;;2.42;69.46
12781;BME280;6454;43.304;24.344;2024-01-30T08:34:25;102819.66;;;2.40;69.27
12781;BME280;6454;43.304;24.344;2024-01-30T08:36:51;102804.13;;;2.27;68.91
12781;BME280;6454;43.304;24.344;2024-01-30T08:39:16;102813.00;;;2.42;69.38
12781;BME280;6454;43.304;24.344;2024-01-30T08:41:42;102821.00;;;2.51;69.06
12781;BME280;6454;43.304;24.344;2024-01-30T08:44:07;102816.88;;;2.55;68.87
12781;BME280;6454;43.304;24.344;2024-01-30T08:46:32;102809.31;;;2.50;68.30
12781;BME280;6454;43.304;24.344;2024-01-30T08:48:59;102812.69;;;2.52;67.79
12781;BME280;6454;43.304;24.344;2024-01-30T08:51:25;102815.19;;;2.54;68.54
12781;BME280;6454;43.304;24.344;2024-01-30T08:53:51;102810.81;;;2.53;67.76
12781;BME280;6454;43.304;24.344;2024-01-30T08:56:17;102828.44;;;2.63;68.02
12781;BME280;6454;43.304;24.344;2024-01-30T08:58:43;102821.97;;;2.64;68.68
12781;BME280;6454;43.304;24.344;2024-01-30T09:01:08;102819.91;;;2.66;68.32
12781;BME280;6454;43.304;24.344;2024-01-30T09:03:34;102801.44;;;2.55;67.40
12781;BME280;6454;43.304;24.344;2024-01-30T09:05:59;102821.38;;;2.69;68.14
12781;BME280;6454;43.304;24.344;2024-01-30T09:08:25;102822.03;;;2.71;68.12
12781;BME280;6454;43.304;24.344;2024-01-30T09:10:50;102825.38;;;2.73;68.36
12781;BME280;6454;43.304;24.344;2024-01-30T09:13:16;102805.72;;;2.71;68.21
12781;BME280;6454;43.304;24.344;2024-01-30T09:15:41;102821.28;;;2.83;68.80
12781;BME280;6454;43.304;24.344;2024-01-30T09:18:07;102813.75;;;2.85;67.51
12781;BME280;6454;43.304;24.344;2024-01-30T09:20:32;102816.28;;;2.87;67.66
12781;BME280;6454;43.304;24.344;2024-01-30T09:22:58;102804.44;;;2.67;67.31
12781;BME280;6454;43.304;24.344;2024-01-30T09:25:23;102832.53;;;2.80;66.92
12781;BME280;6454;43.304;24.344;2024-01-30T09:27:49;102813.34;;;2.82;66.86
12781;BME280;6454;43.304;24.344;2024-01-30T09:30:15;102829.09;;;2.93;67.59
12781;BME280;6454;43.304;24.344;2024-01-30T09:32:43;102822.19;;;2.90;66.91
12781;BME280;6454;43.304;24.344;2024-01-30T09:35:09;102819.63;;;2.89;66.90
12781;BME280;6454;43.304;24.344;2024-01-30T09:37:34;102813.03;;;2.98;67.95
12781;BME280;6454;43.304;24.344;2024-01-30T09:39:59;102811.56;;;2.95;66.57
12781;BME280;6454;43.304;24.344;2024-01-30T09:44:51;102808.47;;;3.05;65.62
12781;BME280;6454;43.304;24.344;2024-01-30T09:47:17;102796.25;;;2.88;66.91
12781;BME280;6454;43.304;24.344;2024-01-30T09:49:43;102802.63;;;3.08;65.74
12781;BME280;6454;43.304;24.344;2024-01-30T09:52:09;102791.13;;;3.06;66.81
12781;BME280;6454;43.304;24.344;2024-01-30T09:54:36;102786.31;;;3.02;65.74
12781;BME280;6454;43.304;24.344;2024-01-30T09:57:03;102794.31;;;3.16;66.29
12781;BME280;6454;43.304;24.344;2024-01-30T09:59:29;102790.00;;;3.28;64.86
12781;BME280;6454;43.304;24.344;2024-01-30T10:01:55;102782.94;;;3.34;66.17
12781;BME280;6454;43.304;24.344;2024-01-30T10:04:22;102780.16;;;3.27;66.34
12781;BME280;6454;43.304;24.344;2024-01-30T10:06:47;102776.44;;;3.35;64.54
12781;BME280;6454;43.304;24.344;2024-01-30T10:09:13;102771.44;;;3.38;65.00
12781;BME280;6454;43.304;24.344;2024-01-30T10:11:39;102791.16;;;3.53;65.48
12781;BME280;6454;43.304;24.344;2024-01-30T10:14:04;102792.00;;;3.54;65.78
12781;BME280;6454;43.304;24.344;2024-01-30T10:16:29;102787.84;;;3.58;65.37
12781;BME280;6454;43.304;24.344;2024-01-30T10:18:55;102769.00;;;3.50;64.74
12781;BME280;6454;43.304;24.344;2024-01-30T10:21:21;102779.91;;;3.63;64.08
12781;BME280;6454;43.304;24.344;2024-01-30T10:23:47;102788.72;;;3.72;63.66
12781;BME280;6454;43.304;24.344;2024-01-30T10:26:12;102762.13;;;3.60;64.09
12781;BME280;6454;43.304;24.344;2024-01-30T10:28:38;102762.75;;;3.63;63.67
12781;BME280;6454;43.304;24.344;2024-01-30T10:31:03;102768.41;;;3.68;64.70
12781;BME280;6454;43.304;24.344;2024-01-30T10:33:30;102758.59;;;3.67;64.14
12781;BME280;6454;43.304;24.344;2024-01-30T10:36:00;102755.69;;;3.75;63.35
12781;BME280;6454;43.304;24.344;2024-01-30T10:38:28;102774.94;;;3.80;63.37
12781;BME280;6454;43.304;24.344;2024-01-30T10:41:00;102755.69;;;3.75;62.74
12781;BME280;6454;43.304;24.344;2024-01-30T10:43:31;102761.59;;;3.91;63.57
12781;BME280;6454;43.304;24.344;2024-01-30T10:46:06;102764.72;;;3.95;63.45
12781;BME280;6454;43.304;24.344;2024-01-30T10:48:36;102747.16;;;3.91;63.42
12781;BME280;6454;43.304;24.344;2024-01-30T10:51:08;102762.84;;;4.02;63.17
12781;BME280;6454;43.304;24.344;2024-01-30T10:53:34;102754.50;;;4.10;63.00
12781;BME280;6454;43.304;24.344;2024-01-30T10:56:01;102756.16;;;4.11;64.30
12781;BME280;6454;43.304;24.344;2024-01-30T10:58:27;102736.47;;;4.09;62.00
12781;BME280;6454;43.304;24.344;2024-01-30T11:00:54;102745.69;;;4.14;62.45
12781;BME280;6454;43.304;24.344;2024-01-30T11:03:22;102746.13;;;4.11;62.08
12781;BME280;6454;43.304;24.344;2024-01-30T11:05:51;102746.34;;;4.10;63.55
12781;BME280;6454;43.304;24.344;2024-01-30T11:08:26;102732.31;;;4.13;61.65
12781;BME280;6454;43.304;24.344;2024-01-30T11:10:58;102741.75;;;4.24;61.60
12781;BME280;6454;43.304;24.344;2024-01-30T11:13:28;102739.41;;;4.27;60.82
12781;BME280;6454;43.304;24.344;2024-01-30T11:15:54;102737.97;;;4.31;61.72
12781;BME280;6454;43.304;24.344;2024-01-30T11:18:26;102739.84;;;4.31;61.25
12781;BME280;6454;43.304;24.344;2024-01-30T11:21:00;102733.97;;;4.27;60.39
12781;BME280;6454;43.304;24.344;2024-01-30T11:23:30;102724.75;;;4.21;60.16
12781;BME280;6454;43.304;24.344;2024-01-30T11:25:58;102725.59;;;4.22;59.68
12781;BME280;6454;43.304;24.344;2024-01-30T11:28:24;102731.66;;;4.24;59.32
12781;BME280;6454;43.304;24.344;2024-01-30T11:30:49;102708.44;;;4.15;57.77
12781;BME280;6454;43.304;24.344;2024-01-30T11:33:30;102722.69;;;4.17;58.09
12781;BME280;6454;43.304;24.344;2024-01-30T11:36:00;102714.72;;;4.22;59.36
12781;BME280;6454;43.304;24.344;2024-01-30T11:38:27;102715.34;;;4.37;60.83
12781;BME280;6454;43.304;24.344;2024-01-30T11:40:54;102713.44;;;4.44;58.87
12781;BME280;6454;43.304;24.344;2024-01-30T11:43:20;102691.91;;;4.36;58.32
12781;BME280;6454;43.304;24.344;2024-01-30T11:45:46;102694.81;;;4.41;58.40
12781;BME280;6454;43.304;24.344;2024-01-30T11:48:12;102704.88;;;4.34;58.89
12781;BME280;6454;43.304;24.344;2024-01-30T11:50:39;102693.38;;;4.26;59.91
12781;BME280;6454;43.304;24.344;2024-01-30T11:53:07;102706.13;;;4.38;58.98
12781;BME280;6454;43.304;24.344;2024-01-30T11:55:33;102682.47;;;4.19;58.25
12781;BME280;6454;43.304;24.344;2024-01-30T11:58:02;102693.59;;;4.37;58.68
12781;BME280;6454;43.304;24.344;2024-01-30T12:00:29;102700.06;;;4.36;58.46
12781;BME280;6454;43.304;24.344;2024-01-30T12:02:56;102680.81;;;4.31;58.16
12781;BME280;6454;43.304;24.344;2024-01-30T12:05:25;102692.50;;;4.38;56.50
12781;BME280;6454;43.304;24.344;2024-01-30T12:07:51;102674.53;;;4.37;56.83
12781;BME280;6454;43.304;24.344;2024-01-30T12:10:16;102687.06;;;4.45;56.72
12781;BME280;6454;43.304;24.344;2024-01-30T12:12:47;102680.34;;;4.41;57.88
12781;BME280;6454;43.304;24.344;2024-01-30T12:15:15;102684.53;;;4.50;56.81
12781;BME280;6454;43.304;24.344;2024-01-30T12:17:41;102686.69;;;4.35;56.28
12781;BME280;6454;43.304;24.344;2024-01-30T12:20:11;102678.72;;;4.27;56.79
12781;BME280;6454;43.304;24.344;2024-01-30T12:25:11;102668.84;;;4.32;55.74
12781;BME280;6454;43.304;24.344;2024-01-30T12:27:37;102675.13;;;4.33;55.09
12781;BME280;6454;43.304;24.344;2024-01-30T12:30:07;102659.47;;;4.35;56.39
12781;BME280;6454;43.304;24.344;2024-01-30T12:32:36;102668.84;;;4.45;54.64
12781;BME280;6454;43.304;24.344;2024-01-30T12:35:03;102660.69;;;4.45;53.53
12781;BME280;6454;43.304;24.344;2024-01-30T12:37:30;102668.44;;;4.48;54.58
12781;BME280;6454;43.304;24.344;2024-01-30T12:39:56;102647.50;;;4.42;54.72
12781;BME280;6454;43.304;24.344;2024-01-30T12:42:22;102649.38;;;4.48;55.77
12781;BME280;6454;43.304;24.344;2024-01-30T12:44:48;102655.63;;;4.49;55.54
12781;BME280;6454;43.304;24.344;2024-01-30T12:47:14;102652.28;;;4.53;56.21
12781;BME280;6454;43.304;24.344;2024-01-30T12:49:42;102650.22;;;4.42;56.23
12781;BME280;6454;43.304;24.344;2024-01-30T12:52:08;102645.63;;;4.36;55.69
12781;BME280;6454;43.304;24.344;2024-01-30T12:54:34;102651.69;;;4.45;56.05
12781;BME280;6454;43.304;24.344;2024-01-30T12:57:00;102647.28;;;4.50;54.69
12781;BME280;6454;43.304;24.344;2024-01-30T12:59:25;102631.38;;;4.47;54.72